sensor_id;sensor_type;location;lat;lon;timestamp;P1;durP1;ratioP1;P2;durP2;ratioP2
37205;SDS011;23099;42.636;23.198;2023-05-02T00:02:21;21.35;;;9.90;;
37205;SDS011;23099;42.636;23.198;2023-05-02T00:04:48;20.08;;;9.70;;
37205;SDS011;23099;42.636;23.198;2023-05-02T00:07:16;21.27;;;10.30;;
37205;SDS011;23099;42.636;23.198;2023-05-02T00:09:42;18.92;;;9.20;;
37205;SDS011;23099;42.636;23.198;2023-05-02T00:12:09;15.15;;;7.82;;
37205;SDS011;23099;42.636;23.198;2023-05-02T00:14:36;18.50;;;8.25;;
37205;SDS011;23099;42.636;23.198;2023-05-02T00:17:02;17.75;;;8.82;;
37205;SDS011;23099;42.636;23.198;2023-05-02T00:19:29;18.10;;;9.43;;
37205;SDS011;23099;42.636;23.198;2023-05-02T00:21:56;19.42;;;9.07;;
37205;SDS011;23099;42.636;23.198;2023-05-02T00:24:24;19.70;;;9.27;;
37205;SDS011;23099;42.636;23.198;2023-05-02T00:26:50;23.27;;;9.57;;
37205;SDS011;23099;42.636;23.198;2023-05-02T00:29:17;13.88;;;7.22;;
37205;SDS011;23099;42.636;23.198;2023-05-02T00:31:44;13.02;;;6.55;;
37205;SDS011;23099;42.636;23.198;2023-05-02T00:34:11;13.27;;;6.13;;
37205;SDS011;23099;42.636;23.198;2023-05-02T00:36:38;18.88;;;8.75;;
37205;SDS011;23099;42.636;23.198;2023-05-02T00:39:04;16.17;;;8.90;;
37205;SDS011;23099;42.636;23.198;2023-05-02T00:41:32;19.73;;;9.02;;
37205;SDS011;23099;42.636;23.198;2023-05-02T00:43:59;16.83;;;8.60;;
37205;SDS011;23099;42.636;23.198;2023-05-02T00:46:26;17.55;;;8.50;;
37205;SDS011;23099;42.636;23.198;2023-05-02T00:48:52;21.83;;;9.88;;
37205;SDS011;23099;42.636;23.198;2023-05-02T00:51:19;18.42;;;9.50;;
37205;SDS011;23099;42.636;23.198;2023-05-02T00:53:46;19.00;;;8.75;;
37205;SDS011;23099;42.636;23.198;2023-05-02T00:56:13;13.35;;;6.97;;
37205;SDS011;23099;42.636;23.198;2023-05-02T00:58:42;11.50;;;5.68;;
37205;SDS011;23099;42.636;23.198;2023-05-02T01:04:01;10.90;;;5.97;;
37205;SDS011;23099;42.636;23.198;2023-05-02T01:06:37;12.70;;;6.53;;
37205;SDS011;23099;42.636;23.198;2023-05-02T01:09:12;12.80;;;6.43;;
37205;SDS011;23099;42.636;23.198;2023-05-02T01:11:47;11.10;;;6.18;;
37205;SDS011;23099;42.636;23.198;2023-05-02T01:14:20;11.90;;;6.43;;
37205;SDS011;23099;42.636;23.198;2023-05-02T01:16:47;19.10;;;6.63;;
37205;SDS011;23099;42.636;23.198;2023-05-02T01:19:19;10.57;;;6.38;;
37205;SDS011;23099;42.636;23.198;2023-05-02T01:21:51;10.70;;;6.57;;
37205;SDS011;23099;42.636;23.198;2023-05-02T01:24:21;13.07;;;6.43;;
37205;SDS011;23099;42.636;23.198;2023-05-02T01:26:57;11.43;;;6.68;;
37205;SDS011;23099;42.636;23.198;2023-05-02T01:29:33;14.77;;;7.38;;
37205;SDS011;23099;42.636;23.198;2023-05-02T01:32:02;14.98;;;7.05;;
37205;SDS011;23099;42.636;23.198;2023-05-02T01:34:31;11.93;;;5.88;;
37205;SDS011;23099;42.636;23.198;2023-05-02T01:37:01;12.38;;;6.55;;
37205;SDS011;23099;42.636;23.198;2023-05-02T01:39:31;11.70;;;6.32;;
37205;SDS011;23099;42.636;23.198;2023-05-02T01:42:00;16.20;;;7.63;;
37205;SDS011;23099;42.636;23.198;2023-05-02T01:44:28;15.20;;;8.05;;
37205;SDS011;23099;42.636;23.198;2023-05-02T01:46:59;13.82;;;7.97;;
37205;SDS011;23099;42.636;23.198;2023-05-02T01:49:29;12.02;;;6.68;;
37205;SDS011;23099;42.636;23.198;2023-05-02T01:51:59;14.80;;;7.78;;
37205;SDS011;23099;42.636;23.198;2023-05-02T01:54:30;11.82;;;7.10;;
37205;SDS011;23099;42.636;23.198;2023-05-02T01:57:00;14.10;;;7.22;;
37205;SDS011;23099;42.636;23.198;2023-05-02T01:59:30;14.88;;;8.00;;
37205;SDS011;23099;42.636;23.198;2023-05-02T02:02:00;14.85;;;7.88;;
37205;SDS011;23099;42.636;23.198;2023-05-02T02:04:29;15.73;;;8.20;;
37205;SDS011;23099;42.636;23.198;2023-05-02T02:07:01;14.75;;;7.78;;
37205;SDS011;23099;42.636;23.198;2023-05-02T02:09:31;13.82;;;7.53;;
37205;SDS011;23099;42.636;23.198;2023-05-02T02:11:59;16.42;;;6.93;;
37205;SDS011;23099;42.636;23.198;2023-05-02T02:14:32;13.23;;;7.53;;
37205;SDS011;23099;42.636;23.198;2023-05-02T02:17:02;14.15;;;7.10;;
37205;SDS011;23099;42.636;23.198;2023-05-02T02:19:34;13.00;;;7.50;;
37205;SDS011;23099;42.636;23.198;2023-05-02T02:22:03;18.27;;;8.88;;
37205;SDS011;23099;42.636;23.198;2023-05-02T02:24:33;17.02;;;9.45;;
37205;SDS011;23099;42.636;23.198;2023-05-02T02:27:01;13.60;;;7.22;;
37205;SDS011;23099;42.636;23.198;2023-05-02T02:29:28;16.60;;;7.57;;
37205;SDS011;23099;42.636;23.198;2023-05-02T02:31:55;15.95;;;7.88;;
37205;SDS011;23099;42.636;23.198;2023-05-02T02:34:23;17.92;;;8.65;;
37205;SDS011;23099;42.636;23.198;2023-05-02T02:36:52;21.63;;;10.07;;
37205;SDS011;23099;42.636;23.198;2023-05-02T02:39:26;14.68;;;7.90;;
37205;SDS011;23099;42.636;23.198;2023-05-02T02:42:09;16.40;;;7.57;;
37205;SDS011;23099;42.636;23.198;2023-05-02T02:44:42;15.00;;;8.68;;
37205;SDS011;23099;42.636;23.198;2023-05-02T02:47:20;17.23;;;8.18;;
37205;SDS011;23099;42.636;23.198;2023-05-02T02:49:59;16.42;;;8.88;;
37205;SDS011;23099;42.636;23.198;2023-05-02T02:52:39;23.00;;;9.98;;
37205;SDS011;23099;42.636;23.198;2023-05-02T02:55:16;16.70;;;9.27;;
37205;SDS011;23099;42.636;23.198;2023-05-02T02:57:50;14.75;;;8.98;;
37205;SDS011;23099;42.636;23.198;2023-05-02T03:00:27;15.68;;;8.13;;
37205;SDS011;23099;42.636;23.198;2023-05-02T03:02:54;15.77;;;7.95;;
37205;SDS011;23099;42.636;23.198;2023-05-02T03:05:23;14.52;;;7.20;;
37205;SDS011;23099;42.636;23.198;2023-05-02T03:07:50;12.32;;;7.40;;
37205;SDS011;23099;42.636;23.198;2023-05-02T03:10:17;13.98;;;7.55;;
37205;SDS011;23099;42.636;23.198;2023-05-02T03:12:44;12.68;;;6.45;;
37205;SDS011;23099;42.636;23.198;2023-05-02T03:15:13;10.52;;;6.72;;
37205;SDS011;23099;42.636;23.198;2023-05-02T03:17:50;12.65;;;6.78;;
37205;SDS011;23099;42.636;23.198;2023-05-02T03:20:17;15.18;;;7.47;;
37205;SDS011;23099;42.636;23.198;2023-05-02T03:22:45;12.77;;;7.78;;
37205;SDS011;23099;42.636;23.198;2023-05-02T03:25:11;17.83;;;7.57;;
37205;SDS011;23099;42.636;23.198;2023-05-02T03:27:38;14.43;;;7.07;;
37205;SDS011;23099;42.636;23.198;2023-05-02T03:30:06;11.05;;;6.28;;
37205;SDS011;23099;42.636;23.198;2023-05-02T03:32:33;11.65;;;6.95;;
37205;SDS011;23099;42.636;23.198;2023-05-02T03:35:00;10.95;;;6.55;;
37205;SDS011;23099;42.636;23.198;2023-05-02T03:37:27;13.32;;;6.60;;
37205;SDS011;23099;42.636;23.198;2023-05-02T03:39:55;17.42;;;6.95;;
37205;SDS011;23099;42.636;23.198;2023-05-02T03:42:21;13.63;;;6.38;;
37205;SDS011;23099;42.636;23.198;2023-05-02T03:44:50;15.18;;;7.95;;
37205;SDS011;23099;42.636;23.198;2023-05-02T03:47:17;15.68;;;8.60;;
37205;SDS011;23099;42.636;23.198;2023-05-02T03:49:44;16.75;;;9.30;;
37205;SDS011;23099;42.636;23.198;2023-05-02T03:52:11;21.45;;;9.68;;
37205;SDS011;23099;42.636;23.198;2023-05-02T03:54:38;17.17;;;7.47;;
37205;SDS011;23099;42.636;23.198;2023-05-02T03:57:07;13.45;;;6.72;;
37205;SDS011;23099;42.636;23.198;2023-05-02T03:59:33;11.93;;;6.13;;
37205;SDS011;23099;42.636;23.198;2023-05-02T04:02:00;12.93;;;6.10;;
37205;SDS011;23099;42.636;23.198;2023-05-02T04:04:27;22.70;;;11.00;;
37205;SDS011;23099;42.636;23.198;2023-05-02T04:06:53;21.80;;;10.95;;
37205;SDS011;23099;42.636;23.198;2023-05-02T04:09:20;22.67;;;11.95;;
37205;SDS011;23099;42.636;23.198;2023-05-02T04:11:49;22.48;;;11.90;;
37205;SDS011;23099;42.636;23.198;2023-05-02T04:14:17;24.13;;;12.23;;
37205;SDS011;23099;42.636;23.198;2023-05-02T04:16:46;26.08;;;14.18;;
37205;SDS011;23099;42.636;23.198;2023-05-02T04:19:13;22.02;;;12.02;;
37205;SDS011;23099;42.636;23.198;2023-05-02T04:21:40;19.35;;;9.48;;
37205;SDS011;23099;42.636;23.198;2023-05-02T04:24:07;18.27;;;10.57;;
37205;SDS011;23099;42.636;23.198;2023-05-02T04:26:34;18.20;;;10.48;;
37205;SDS011;23099;42.636;23.198;2023-05-02T04:29:01;19.30;;;10.68;;
37205;SDS011;23099;42.636;23.198;2023-05-02T04:31:31;15.75;;;8.48;;
37205;SDS011;23099;42.636;23.198;2023-05-02T04:33:58;15.50;;;8.77;;
37205;SDS011;23099;42.636;23.198;2023-05-02T04:36:24;14.63;;;8.55;;
37205;SDS011;23099;42.636;23.198;2023-05-02T04:38:52;13.55;;;8.35;;
37205;SDS011;23099;42.636;23.198;2023-05-02T04:41:19;13.20;;;8.45;;
37205;SDS011;23099;42.636;23.198;2023-05-02T04:43:45;12.75;;;7.95;;
37205;SDS011;23099;42.636;23.198;2023-05-02T04:46:12;11.38;;;7.55;;
37205;SDS011;23099;42.636;23.198;2023-05-02T04:48:40;16.00;;;8.35;;
37205;SDS011;23099;42.636;23.198;2023-05-02T04:51:07;13.13;;;8.45;;
37205;SDS011;23099;42.636;23.198;2023-05-02T04:53:34;12.25;;;7.57;;
37205;SDS011;23099;42.636;23.198;2023-05-02T04:56:00;13.20;;;7.80;;
37205;SDS011;23099;42.636;23.198;2023-05-02T04:58:27;13.93;;;8.35;;
37205;SDS011;23099;42.636;23.198;2023-05-02T05:00:54;13.50;;;6.65;;
37205;SDS011;23099;42.636;23.198;2023-05-02T05:03:21;14.40;;;8.23;;
37205;SDS011;23099;42.636;23.198;2023-05-02T05:05:49;11.90;;;8.07;;
37205;SDS011;23099;42.636;23.198;2023-05-02T05:08:16;12.88;;;8.25;;
37205;SDS011;23099;42.636;23.198;2023-05-02T05:10:43;12.93;;;8.20;;
37205;SDS011;23099;42.636;23.198;2023-05-02T05:13:09;11.15;;;7.85;;
37205;SDS011;23099;42.636;23.198;2023-05-02T05:15:38;13.20;;;7.55;;
37205;SDS011;23099;42.636;23.198;2023-05-02T05:18:04;13.07;;;7.88;;
37205;SDS011;23099;42.636;23.198;2023-05-02T05:20:31;10.32;;;7.28;;
37205;SDS011;23099;42.636;23.198;2023-05-02T05:23:00;13.00;;;8.70;;
37205;SDS011;23099;42.636;23.198;2023-05-02T05:25:27;13.98;;;7.32;;
37205;SDS011;23099;42.636;23.198;2023-05-02T05:27:53;12.38;;;7.53;;
37205;SDS011;23099;42.636;23.198;2023-05-02T05:30:21;14.20;;;8.68;;
37205;SDS011;23099;42.636;23.198;2023-05-02T05:32:47;11.52;;;7.90;;
37205;SDS011;23099;42.636;23.198;2023-05-02T05:35:14;11.77;;;7.65;;
37205;SDS011;23099;42.636;23.198;2023-05-02T05:37:41;12.93;;;7.53;;
37205;SDS011;23099;42.636;23.198;2023-05-02T05:40:10;13.25;;;7.32;;
37205;SDS011;23099;42.636;23.198;2023-05-02T05:42:36;13.30;;;7.15;;
37205;SDS011;23099;42.636;23.198;2023-05-02T05:45:03;12.85;;;7.20;;
37205;SDS011;23099;42.636;23.198;2023-05-02T05:47:31;13.63;;;6.97;;
37205;SDS011;23099;42.636;23.198;2023-05-02T05:49:57;11.32;;;6.22;;
37205;SDS011;23099;42.636;23.198;2023-05-02T05:52:24;9.60;;;6.35;;
37205;SDS011;23099;42.636;23.198;2023-05-02T05:54:52;10.77;;;6.35;;
37205;SDS011;23099;42.636;23.198;2023-05-02T05:57:21;9.63;;;5.63;;
37205;SDS011;23099;42.636;23.198;2023-05-02T05:59:47;12.02;;;5.85;;
37205;SDS011;23099;42.636;23.198;2023-05-02T06:02:15;10.07;;;6.55;;
37205;SDS011;23099;42.636;23.198;2023-05-02T06:04:41;10.32;;;5.90;;
37205;SDS011;23099;42.636;23.198;2023-05-02T06:07:10;10.00;;;5.90;;
37205;SDS011;23099;42.636;23.198;2023-05-02T06:09:36;10.07;;;6.07;;
37205;SDS011;23099;42.636;23.198;2023-05-02T06:12:03;11.23;;;5.75;;
37205;SDS011;23099;42.636;23.198;2023-05-02T06:14:31;9.63;;;5.55;;
37205;SDS011;23099;42.636;23.198;2023-05-02T06:16:58;10.45;;;5.85;;
37205;SDS011;23099;42.636;23.198;2023-05-02T06:19:25;11.95;;;5.57;;
37205;SDS011;23099;42.636;23.198;2023-05-02T06:21:51;8.82;;;5.30;;
37205;SDS011;23099;42.636;23.198;2023-05-02T06:24:18;9.68;;;5.53;;
37205;SDS011;23099;42.636;23.198;2023-05-02T06:26:45;10.75;;;5.43;;
37205;SDS011;23099;42.636;23.198;2023-05-02T06:29:12;10.00;;;5.18;;
37205;SDS011;23099;42.636;23.198;2023-05-02T06:31:40;10.35;;;5.10;;
37205;SDS011;23099;42.636;23.198;2023-05-02T06:34:07;8.40;;;5.07;;
37205;SDS011;23099;42.636;23.198;2023-05-02T06:36:33;11.32;;;5.00;;
37205;SDS011;23099;42.636;23.198;2023-05-02T06:39:00;9.27;;;4.78;;
37205;SDS011;23099;42.636;23.198;2023-05-02T06:41:27;9.98;;;4.55;;
37205;SDS011;23099;42.636;23.198;2023-05-02T06:43:53;9.82;;;4.45;;
37205;SDS011;23099;42.636;23.198;2023-05-02T06:46:20;7.45;;;4.70;;
37205;SDS011;23099;42.636;23.198;2023-05-02T06:48:48;8.32;;;4.40;;
37205;SDS011;23099;42.636;23.198;2023-05-02T06:51:15;9.23;;;4.88;;
37205;SDS011;23099;42.636;23.198;2023-05-02T06:53:43;10.93;;;4.63;;
37205;SDS011;23099;42.636;23.198;2023-05-02T06:56:10;8.32;;;3.85;;
37205;SDS011;23099;42.636;23.198;2023-05-02T06:58:36;7.97;;;3.97;;
37205;SDS011;23099;42.636;23.198;2023-05-02T07:01:03;7.93;;;3.97;;
37205;SDS011;23099;42.636;23.198;2023-05-02T07:03:30;7.82;;;3.92;;
37205;SDS011;23099;42.636;23.198;2023-05-02T07:05:58;29.27;;;13.07;;
37205;SDS011;23099;42.636;23.198;2023-05-02T07:08:25;10.82;;;5.18;;
37205;SDS011;23099;42.636;23.198;2023-05-02T07:10:51;7.13;;;3.90;;
37205;SDS011;23099;42.636;23.198;2023-05-02T07:13:18;8.27;;;3.28;;
37205;SDS011;23099;42.636;23.198;2023-05-02T07:15:45;8.45;;;3.40;;
37205;SDS011;23099;42.636;23.198;2023-05-02T07:18:11;6.20;;;3.40;;
37205;SDS011;23099;42.636;23.198;2023-05-02T07:20:38;6.20;;;2.72;;
37205;SDS011;23099;42.636;23.198;2023-05-02T07:23:07;7.75;;;3.22;;
37205;SDS011;23099;42.636;23.198;2023-05-02T07:25:34;7.47;;;2.58;;
37205;SDS011;23099;42.636;23.198;2023-05-02T07:28:01;6.22;;;2.75;;
37205;SDS011;23099;42.636;23.198;2023-05-02T07:30:29;7.10;;;3.25;;
37205;SDS011;23099;42.636;23.198;2023-05-02T07:32:56;9.30;;;2.80;;
37205;SDS011;23099;42.636;23.198;2023-05-02T07:35:22;7.82;;;2.80;;
37205;SDS011;23099;42.636;23.198;2023-05-02T07:37:49;5.10;;;2.67;;
37205;SDS011;23099;42.636;23.198;2023-05-02T07:40:17;4.45;;;2.15;;
37205;SDS011;23099;42.636;23.198;2023-05-02T07:42:44;7.00;;;2.50;;
37205;SDS011;23099;42.636;23.198;2023-05-02T07:45:11;5.00;;;2.47;;
37205;SDS011;23099;42.636;23.198;2023-05-02T07:47:38;6.10;;;2.28;;
37205;SDS011;23099;42.636;23.198;2023-05-02T07:50:06;5.55;;;2.10;;
37205;SDS011;23099;42.636;23.198;2023-05-02T07:52:33;5.82;;;1.90;;
37205;SDS011;23099;42.636;23.198;2023-05-02T07:55:00;3.40;;;1.60;;
37205;SDS011;23099;42.636;23.198;2023-05-02T07:57:28;3.40;;;1.60;;
37205;SDS011;23099;42.636;23.198;2023-05-02T07:59:54;5.72;;;2.00;;
37205;SDS011;23099;42.636;23.198;2023-05-02T08:02:23;6.43;;;1.70;;
37205;SDS011;23099;42.636;23.198;2023-05-02T08:04:50;6.72;;;2.13;;
37205;SDS011;23099;42.636;23.198;2023-05-02T08:07:17;6.07;;;2.13;;
37205;SDS011;23099;42.636;23.198;2023-05-02T08:09:43;5.45;;;1.80;;
37205;SDS011;23099;42.636;23.198;2023-05-02T08:12:10;5.95;;;1.60;;
37205;SDS011;23099;42.636;23.198;2023-05-02T08:14:38;9.80;;;1.80;;
37205;SDS011;23099;42.636;23.198;2023-05-02T08:17:05;4.70;;;1.77;;
37205;SDS011;23099;42.636;23.198;2023-05-02T08:19:31;3.67;;;1.45;;
37205;SDS011;23099;42.636;23.198;2023-05-02T08:21:58;4.78;;;1.67;;
37205;SDS011;23099;42.636;23.198;2023-05-02T08:24:25;3.88;;;1.40;;
37205;SDS011;23099;42.636;23.198;2023-05-02T08:26:52;20.25;;;8.18;;
37205;SDS011;23099;42.636;23.198;2023-05-02T08:29:18;7.05;;;1.80;;
37205;SDS011;23099;42.636;23.198;2023-05-02T08:31:46;7.63;;;1.90;;
37205;SDS011;23099;42.636;23.198;2023-05-02T08:34:13;6.30;;;1.90;;
37205;SDS011;23099;42.636;23.198;2023-05-02T08:36:40;3.60;;;1.65;;
37205;SDS011;23099;42.636;23.198;2023-05-02T08:39:06;4.00;;;1.50;;
37205;SDS011;23099;42.636;23.198;2023-05-02T08:41:33;4.10;;;1.58;;
37205;SDS011;23099;42.636;23.198;2023-05-02T08:44:00;4.75;;;2.15;;
37205;SDS011;23099;42.636;23.198;2023-05-02T08:46:28;5.45;;;1.77;;
37205;SDS011;23099;42.636;23.198;2023-05-02T08:51:25;4.10;;;2.22;;
37205;SDS011;23099;42.636;23.198;2023-05-02T08:56:20;4.63;;;2.00;;
37205;SDS011;23099;42.636;23.198;2023-05-02T08:58:46;5.03;;;1.90;;
37205;SDS011;23099;42.636;23.198;2023-05-02T09:01:15;7.70;;;1.73;;
37205;SDS011;23099;42.636;23.198;2023-05-02T09:03:43;4.47;;;1.60;;
37205;SDS011;23099;42.636;23.198;2023-05-02T09:06:13;4.90;;;1.50;;
37205;SDS011;23099;42.636;23.198;2023-05-02T09:08:41;7.18;;;3.13;;
37205;SDS011;23099;42.636;23.198;2023-05-02T09:11:10;7.28;;;2.80;;
37205;SDS011;23099;42.636;23.198;2023-05-02T09:13:38;8.68;;;3.25;;
37205;SDS011;23099;42.636;23.198;2023-05-02T09:16:06;7.68;;;2.53;;
37205;SDS011;23099;42.636;23.198;2023-05-02T09:18:36;7.97;;;3.20;;
37205;SDS011;23099;42.636;23.198;2023-05-02T09:21:04;6.22;;;2.10;;
37205;SDS011;23099;42.636;23.198;2023-05-02T09:23:35;9.95;;;2.30;;
37205;SDS011;23099;42.636;23.198;2023-05-02T09:28:48;7.53;;;2.03;;
37205;SDS011;23099;42.636;23.198;2023-05-02T09:31:16;4.32;;;1.80;;
37205;SDS011;23099;42.636;23.198;2023-05-02T09:33:44;8.88;;;2.22;;
37205;SDS011;23099;42.636;23.198;2023-05-02T09:36:11;4.82;;;1.60;;
37205;SDS011;23099;42.636;23.198;2023-05-02T09:43:34;8.85;;;2.33;;
37205;SDS011;23099;42.636;23.198;2023-05-02T09:46:02;6.68;;;2.25;;
37205;SDS011;23099;42.636;23.198;2023-05-02T09:48:30;11.00;;;2.15;;
37205;SDS011;23099;42.636;23.198;2023-05-02T09:53:25;5.40;;;2.08;;
37205;SDS011;23099;42.636;23.198;2023-05-02T09:56:01;6.32;;;1.73;;
37205;SDS011;23099;42.636;23.198;2023-05-02T09:58:29;6.05;;;1.40;;
37205;SDS011;23099;42.636;23.198;2023-05-02T10:00:56;6.17;;;1.50;;
37205;SDS011;23099;42.636;23.198;2023-05-02T10:03:24;4.30;;;1.77;;
37205;SDS011;23099;42.636;23.198;2023-05-02T10:08:19;7.97;;;1.38;;
37205;SDS011;23099;42.636;23.198;2023-05-02T10:10:49;4.45;;;1.30;;
37205;SDS011;23099;42.636;23.198;2023-05-02T10:13:20;6.20;;;1.20;;
37205;SDS011;23099;42.636;23.198;2023-05-02T10:15:49;8.15;;;1.40;;
37205;SDS011;23099;42.636;23.198;2023-05-02T10:18:25;5.40;;;1.35;;
37205;SDS011;23099;42.636;23.198;2023-05-02T10:20:56;5.10;;;1.00;;
37205;SDS011;23099;42.636;23.198;2023-05-02T10:23:27;3.67;;;1.00;;
37205;SDS011;23099;42.636;23.198;2023-05-02T10:25:56;4.35;;;1.25;;
37205;SDS011;23099;42.636;23.198;2023-05-02T10:30:52;4.35;;;1.17;;
37205;SDS011;23099;42.636;23.198;2023-05-02T10:33:19;9.53;;;2.10;;
37205;SDS011;23099;42.636;23.198;2023-05-02T10:35:46;4.25;;;1.40;;
37205;SDS011;23099;42.636;23.198;2023-05-02T10:38:14;5.07;;;0.95;;
37205;SDS011;23099;42.636;23.198;2023-05-02T10:40:46;3.53;;;1.10;;
37205;SDS011;23099;42.636;23.198;2023-05-02T10:43:20;6.50;;;1.35;;
37205;SDS011;23099;42.636;23.198;2023-05-02T10:45:50;4.63;;;0.98;;
37205;SDS011;23099;42.636;23.198;2023-05-02T10:48:18;4.57;;;1.10;;
37205;SDS011;23099;42.636;23.198;2023-05-02T10:50:47;9.02;;;1.52;;
37205;SDS011;23099;42.636;23.198;2023-05-02T10:53:21;2.92;;;1.20;;
37205;SDS011;23099;42.636;23.198;2023-05-02T10:56:06;3.83;;;1.00;;
37205;SDS011;23099;42.636;23.198;2023-05-02T10:58:34;5.45;;;1.00;;
37205;SDS011;23099;42.636;23.198;2023-05-02T11:04:12;5.22;;;1.10;;
37205;SDS011;23099;42.636;23.198;2023-05-02T11:09:39;3.78;;;0.93;;
37205;SDS011;23099;42.636;23.198;2023-05-02T11:12:06;5.50;;;2.00;;
37205;SDS011;23099;42.636;23.198;2023-05-02T11:14:45;4.00;;;1.00;;
37205;SDS011;23099;42.636;23.198;2023-05-02T11:17:15;3.35;;;0.90;;
37205;SDS011;23099;42.636;23.198;2023-05-02T11:22:49;3.72;;;0.80;;
37205;SDS011;23099;42.636;23.198;2023-05-02T11:28:06;5.13;;;0.90;;
37205;SDS011;23099;42.636;23.198;2023-05-02T11:30:44;3.42;;;0.88;;
37205;SDS011;23099;42.636;23.198;2023-05-02T11:33:14;5.38;;;0.80;;
37205;SDS011;23099;42.636;23.198;2023-05-02T11:35:47;4.05;;;0.60;;
37205;SDS011;23099;42.636;23.198;2023-05-02T11:38:18;4.15;;;1.08;;
37205;SDS011;23099;42.636;23.198;2023-05-02T11:40:49;4.18;;;0.60;;
37205;SDS011;23099;42.636;23.198;2023-05-02T11:43:17;4.15;;;0.85;;
37205;SDS011;23099;42.636;23.198;2023-05-02T11:45:45;3.17;;;0.80;;
37205;SDS011;23099;42.636;23.198;2023-05-02T11:48:13;4.03;;;0.82;;
37205;SDS011;23099;42.636;23.198;2023-05-02T11:50:44;3.47;;;0.90;;
37205;SDS011;23099;42.636;23.198;2023-05-02T11:55:48;2.60;;;0.80;;
37205;SDS011;23099;42.636;23.198;2023-05-02T11:58:17;2.88;;;0.90;;
37205;SDS011;23099;42.636;23.198;2023-05-02T12:00:45;3.30;;;0.90;;
37205;SDS011;23099;42.636;23.198;2023-05-02T12:03:20;3.70;;;0.95;;
37205;SDS011;23099;42.636;23.198;2023-05-02T12:05:48;2.92;;;0.70;;
37205;SDS011;23099;42.636;23.198;2023-05-02T12:08:19;3.10;;;0.95;;
37205;SDS011;23099;42.636;23.198;2023-05-02T12:10:46;2.88;;;0.85;;
37205;SDS011;23099;42.636;23.198;2023-05-02T12:13:15;2.10;;;0.80;;
37205;SDS011;23099;42.636;23.198;2023-05-02T12:15:42;3.25;;;0.90;;
37205;SDS011;23099;42.636;23.198;2023-05-02T12:18:10;3.25;;;0.98;;
37205;SDS011;23099;42.636;23.198;2023-05-02T12:20:38;4.85;;;0.88;;
37205;SDS011;23099;42.636;23.198;2023-05-02T12:25:36;5.72;;;0.90;;
37205;SDS011;23099;42.636;23.198;2023-05-02T12:28:04;3.10;;;0.90;;
37205;SDS011;23099;42.636;23.198;2023-05-02T12:30:31;2.63;;;0.82;;
37205;SDS011;23099;42.636;23.198;2023-05-02T12:32:58;5.80;;;0.73;;
37205;SDS011;23099;42.636;23.198;2023-05-02T12:37:54;8.48;;;1.60;;
37205;SDS011;23099;42.636;23.198;2023-05-02T12:40:33;5.43;;;1.00;;
37205;SDS011;23099;42.636;23.198;2023-05-02T12:43:00;2.72;;;0.63;;
37205;SDS011;23099;42.636;23.198;2023-05-02T12:45:28;2.78;;;0.70;;
37205;SDS011;23099;42.636;23.198;2023-05-02T12:47:58;4.80;;;0.75;;
37205;SDS011;23099;42.636;23.198;2023-05-02T12:50:34;5.32;;;1.15;;
37205;SDS011;23099;42.636;23.198;2023-05-02T12:53:03;4.18;;;0.90;;
37205;SDS011;23099;42.636;23.198;2023-05-02T12:55:31;4.38;;;0.90;;
37205;SDS011;23099;42.636;23.198;2023-05-02T12:57:58;4.30;;;0.80;;
37205;SDS011;23099;42.636;23.198;2023-05-02T13:00:26;8.15;;;0.90;;
37205;SDS011;23099;42.636;23.198;2023-05-02T13:02:53;3.90;;;0.80;;
37205;SDS011;23099;42.636;23.198;2023-05-02T13:05:20;3.47;;;0.80;;
37205;SDS011;23099;42.636;23.198;2023-05-02T13:07:47;3.63;;;0.80;;
37205;SDS011;23099;42.636;23.198;2023-05-02T13:10:15;2.85;;;0.80;;
37205;SDS011;23099;42.636;23.198;2023-05-02T13:12:42;4.15;;;1.17;;
37205;SDS011;23099;42.636;23.198;2023-05-02T13:15:09;4.40;;;0.90;;
37205;SDS011;23099;42.636;23.198;2023-05-02T13:17:36;4.87;;;0.90;;
37205;SDS011;23099;42.636;23.198;2023-05-02T13:20:03;4.20;;;0.85;;
37205;SDS011;23099;42.636;23.198;2023-05-02T13:22:31;3.92;;;1.00;;
37205;SDS011;23099;42.636;23.198;2023-05-02T13:24:57;4.60;;;0.80;;
37205;SDS011;23099;42.636;23.198;2023-05-02T13:27:26;3.88;;;0.80;;
37205;SDS011;23099;42.636;23.198;2023-05-02T13:29:52;4.05;;;0.90;;
37205;SDS011;23099;42.636;23.198;2023-05-02T13:32:19;4.15;;;0.80;;
37205;SDS011;23099;42.636;23.198;2023-05-02T13:34:46;4.77;;;0.70;;
37205;SDS011;23099;42.636;23.198;2023-05-02T13:37:13;4.43;;;0.90;;
37205;SDS011;23099;42.636;23.198;2023-05-02T13:39:40;3.60;;;0.85;;
37205;SDS011;23099;42.636;23.198;2023-05-02T13:42:06;3.58;;;1.15;;
37205;SDS011;23099;42.636;23.198;2023-05-02T13:44:35;6.38;;;0.85;;
37205;SDS011;23099;42.636;23.198;2023-05-02T13:47:01;4.20;;;0.82;;
37205;SDS011;23099;42.636;23.198;2023-05-02T13:49:28;3.42;;;0.90;;
37205;SDS011;23099;42.636;23.198;2023-05-02T13:51:55;3.67;;;0.70;;
37205;SDS011;23099;42.636;23.198;2023-05-02T13:54:22;3.25;;;0.80;;
37205;SDS011;23099;42.636;23.198;2023-05-02T13:56:48;3.72;;;0.82;;
37205;SDS011;23099;42.636;23.198;2023-05-02T13:59:15;5.45;;;0.90;;
37205;SDS011;23099;42.636;23.198;2023-05-02T14:01:43;3.70;;;0.63;;
37205;SDS011;23099;42.636;23.198;2023-05-02T14:04:10;2.70;;;0.73;;
37205;SDS011;23099;42.636;23.198;2023-05-02T14:06:36;1.48;;;0.60;;
37205;SDS011;23099;42.636;23.198;2023-05-02T14:09:03;3.72;;;0.73;;
37205;SDS011;23099;42.636;23.198;2023-05-02T14:11:31;5.50;;;0.80;;
37205;SDS011;23099;42.636;23.198;2023-05-02T14:13:58;4.32;;;0.70;;
37205;SDS011;23099;42.636;23.198;2023-05-02T14:16:25;4.30;;;0.80;;
37205;SDS011;23099;42.636;23.198;2023-05-02T14:18:53;5.85;;;0.70;;
37205;SDS011;23099;42.636;23.198;2023-05-02T14:21:19;6.05;;;0.70;;
37205;SDS011;23099;42.636;23.198;2023-05-02T14:23:46;6.07;;;0.75;;
37205;SDS011;23099;42.636;23.198;2023-05-02T14:26:13;4.68;;;0.70;;
37205;SDS011;23099;42.636;23.198;2023-05-02T14:28:40;2.95;;;0.60;;
37205;SDS011;23099;42.636;23.198;2023-05-02T14:31:06;6.90;;;0.68;;
37205;SDS011;23099;42.636;23.198;2023-05-02T14:33:33;2.92;;;0.52;;
37205;SDS011;23099;42.636;23.198;2023-05-02T14:36:01;3.20;;;0.70;;
37205;SDS011;23099;42.636;23.198;2023-05-02T14:38:28;2.50;;;0.60;;
37205;SDS011;23099;42.636;23.198;2023-05-02T14:40:55;4.32;;;0.70;;
37205;SDS011;23099;42.636;23.198;2023-05-02T14:43:22;4.07;;;0.80;;
37205;SDS011;23099;42.636;23.198;2023-05-02T14:45:48;4.13;;;0.80;;
37205;SDS011;23099;42.636;23.198;2023-05-02T14:48:15;4.10;;;0.70;;
37205;SDS011;23099;42.636;23.198;2023-05-02T14:50:42;4.10;;;0.60;;
37205;SDS011;23099;42.636;23.198;2023-05-02T14:53:10;3.30;;;0.60;;
37205;SDS011;23099;42.636;23.198;2023-05-02T14:55:37;3.47;;;0.60;;
37205;SDS011;23099;42.636;23.198;2023-05-02T14:58:04;3.90;;;0.60;;
37205;SDS011;23099;42.636;23.198;2023-05-02T15:00:32;5.72;;;0.77;;
37205;SDS011;23099;42.636;23.198;2023-05-02T15:03:01;2.72;;;0.75;;
37205;SDS011;23099;42.636;23.198;2023-05-02T15:05:28;4.43;;;0.63;;
37205;SDS011;23099;42.636;23.198;2023-05-02T15:07:55;2.40;;;0.77;;
37205;SDS011;23099;42.636;23.198;2023-05-02T15:10:24;3.50;;;0.60;;
37205;SDS011;23099;42.636;23.198;2023-05-02T15:15:17;2.90;;;0.60;;
37205;SDS011;23099;42.636;23.198;2023-05-02T15:17:46;3.28;;;0.60;;
37205;SDS011;23099;42.636;23.198;2023-05-02T15:20:13;3.10;;;0.60;;